createdAt,value
2019-02-15T00:01:19.746Z,98.27
2019-02-15T00:03:48.887Z,98.29
2019-02-15T00:06:17.974Z,97.96
2019-02-15T00:08:47.096Z,98.22
2019-02-15T00:11:16.229Z,98.06
2019-02-15T00:13:45.365Z,97.93
2019-02-15T00:16:14.486Z,98.05
2019-02-15T00:18:55.931Z,97.94
2019-02-15T00:21:27.759Z,98.11
2019-02-15T00:23:56.865Z,97.86
2019-02-15T00:26:26.002Z,97.69
2019-02-15T00:28:55.123Z,97.74
2019-02-15T00:31:24.263Z,97.83
2019-02-15T00:33:53.406Z,97.90
2019-02-15T00:36:22.532Z,97.67
2019-02-15T00:38:51.622Z,97.70
2019-02-15T00:41:20.693Z,97.67
2019-02-15T00:43:49.836Z,98.01
2019-02-15T00:46:56.079Z,98.11
2019-02-15T00:49:40.463Z,98.41
2019-02-15T00:52:31.608Z,98.67
2019-02-15T00:55:21.215Z,98.13
2019-02-15T00:58:18.534Z,97.85
2019-02-15T01:00:54.297Z,98.05
2019-02-15T01:03:43.167Z,98.55
2019-02-15T01:06:30.172Z,98.75
2019-02-15T01:09:17.202Z,98.77
2019-02-15T01:11:51.010Z,98.45
2019-02-15T01:14:20.470Z,98.37
2019-02-15T01:16:49.697Z,98.35
2019-02-15T01:19:18.795Z,98.30
2019-02-15T01:21:47.910Z,98.47
2019-02-15T01:24:16.993Z,98.38
2019-02-15T01:26:48.439Z,98.87
2019-02-15T01:29:48.701Z,99.07
2019-02-15T01:32:43.097Z,98.75
2019-02-15T01:35:29.846Z,98.59
2019-02-15T01:38:30.192Z,98.32
2019-02-15T01:41:04.853Z,98.60
2019-02-15T01:43:51.773Z,98.32
2019-02-15T01:46:24.653Z,98.33
2019-02-15T01:48:53.815Z,98.64
2019-02-15T01:51:22.905Z,98.76
2019-02-15T01:53:51.951Z,99.20
2019-02-15T01:56:21.131Z,99.09
2019-02-15T01:58:50.255Z,99.02
2019-02-15T02:01:22.991Z,99.14
2019-02-15T02:03:52.034Z,98.97
2019-02-15T02:06:21.141Z,98.98
2019-02-15T02:08:50.282Z,98.91
2019-02-15T02:11:19.424Z,98.50
2019-02-15T02:13:49.864Z,98.29
2019-02-15T02:16:19.522Z,98.29
2019-02-15T02:18:48.666Z,98.56
2019-02-15T02:21:17.840Z,98.56
2019-02-15T02:23:46.954Z,98.49
2019-02-15T02:26:16.051Z,98.67
2019-02-15T02:28:45.317Z,98.87
2019-02-15T02:31:14.448Z,98.58
2019-02-15T02:33:43.500Z,98.40
2019-02-15T02:36:12.583Z,98.38
2019-02-15T02:38:41.720Z,98.55
2019-02-15T02:41:10.812Z,98.59
2019-02-15T02:43:39.941Z,98.45
2019-02-15T02:46:09.068Z,98.42
2019-02-15T02:48:38.388Z,98.44
2019-02-15T02:51:07.490Z,98.54
2019-02-15T02:53:36.623Z,98.58
2019-02-15T02:56:05.707Z,98.78
2019-02-15T02:58:34.745Z,99.05
2019-02-15T03:01:04.319Z,99.18
2019-02-15T03:03:33.460Z,99.08
2019-02-15T03:06:02.593Z,98.81
2019-02-15T03:08:31.744Z,98.88
2019-02-15T03:11:00.837Z,99.03
2019-02-15T03:13:30.081Z,99.09
2019-02-15T03:15:59.087Z,98.85
2019-02-15T03:18:28.198Z,98.96
2019-02-15T03:20:57.319Z,99.23
2019-02-15T03:23:26.445Z,99.20
2019-02-15T03:25:55.589Z,98.81
2019-02-15T03:28:24.614Z,98.76
2019-02-15T03:30:53.722Z,98.81
2019-02-15T03:33:22.869Z,98.97
2019-02-15T03:36:03.458Z,99.06
2019-02-15T03:38:37.731Z,99.13
2019-02-15T03:41:18.084Z,99.18
2019-02-15T03:43:47.233Z,99.47
2019-02-15T03:46:16.306Z,99.41
2019-02-15T03:48:45.466Z,99.38
2019-02-15T03:51:14.561Z,99.28
2019-02-15T03:53:44.008Z,99.26
2019-02-15T03:56:13.233Z,99.26
2019-02-15T03:58:42.340Z,99.16
2019-02-15T04:01:11.851Z,99.35
2019-02-15T04:03:40.992Z,99.13
2019-02-15T04:06:10.090Z,99.18
2019-02-15T04:08:39.204Z,99.53
2019-02-15T04:11:08.322Z,99.55
2019-02-15T04:13:37.465Z,99.13
2019-02-15T04:16:06.547Z,99.06
2019-02-15T04:18:35.664Z,99.06
2019-02-15T04:21:04.751Z,99.15
2019-02-15T04:23:33.855Z,99.40
2019-02-15T04:26:03.310Z,99.35
2019-02-15T04:28:32.406Z,99.27
2019-02-15T04:31:01.543Z,99.45
2019-02-15T04:33:30.669Z,99.20
2019-02-15T04:35:59.776Z,99.47
2019-02-15T04:38:28.820Z,99.63
2019-02-15T04:40:58.291Z,99.59
2019-02-15T04:43:27.390Z,99.44
2019-02-15T04:45:56.554Z,99.30
2019-02-15T04:48:25.630Z,99.51
2019-02-15T04:50:55.185Z,99.54
2019-02-15T04:53:24.140Z,99.75
2019-02-15T04:55:53.291Z,99.43
2019-02-15T04:58:22.384Z,99.24
2019-02-15T05:00:51.458Z,99.32
2019-02-15T05:03:20.469Z,99.26
2019-02-15T05:05:49.654Z,99.15
2019-02-15T05:08:18.679Z,99.12
2019-02-15T05:10:47.882Z,99.44
2019-02-15T05:13:17.008Z,99.40
2019-02-15T05:15:46.141Z,99.68
2019-02-15T05:18:15.211Z,99.76
2019-02-15T05:20:44.277Z,99.73
2019-02-15T05:23:13.313Z,99.42
2019-02-15T05:25:42.445Z,99.34
2019-02-15T05:28:11.666Z,99.11
2019-02-15T05:30:40.917Z,99.22
2019-02-15T05:33:09.993Z,99.58
2019-02-15T05:35:39.512Z,99.71
2019-02-15T05:38:08.605Z,99.86
2019-02-15T05:40:37.730Z,99.94
2019-02-15T05:43:07.567Z,100.00
2019-02-15T05:45:36.717Z,100.00
2019-02-15T05:48:05.814Z,99.97
2019-02-15T05:50:34.852Z,99.73
2019-02-15T05:53:03.991Z,99.50
2019-02-15T05:55:33.137Z,99.61
2019-02-15T05:58:02.329Z,99.97
2019-02-15T06:00:37.032Z,100.00
2019-02-15T06:03:02.580Z,100.00
2019-02-15T06:05:31.685Z,100.00
2019-02-15T06:08:00.791Z,100.00
2019-02-15T06:10:30.016Z,100.00
2019-02-15T06:12:59.061Z,100.00
2019-02-15T06:15:28.191Z,100.00
2019-02-15T06:17:57.242Z,100.00
2019-02-15T06:20:26.295Z,100.00
2019-02-15T06:22:55.459Z,99.93
2019-02-15T06:25:24.638Z,99.88
2019-02-15T06:27:53.776Z,100.00
2019-02-15T06:30:23.249Z,100.00
2019-02-15T06:32:57.940Z,100.00
2019-02-15T06:36:05.354Z,99.90
2019-02-15T06:38:34.714Z,99.70
2019-02-15T06:41:00.867Z,99.93
2019-02-15T06:43:29.878Z,100.00
2019-02-15T06:45:58.998Z,100.00
2019-02-15T06:48:28.150Z,100.00
2019-02-15T06:50:57.277Z,100.00
2019-02-15T06:53:26.297Z,100.00
2019-02-15T06:55:55.482Z,99.96
2019-02-15T06:58:24.593Z,99.99
2019-02-15T07:01:12.699Z,99.52
2019-02-15T07:03:51.786Z,99.63
2019-02-15T07:06:20.982Z,99.76
2019-02-15T07:08:49.997Z,99.83
2019-02-15T07:11:19.142Z,99.60
2019-02-15T07:13:48.247Z,99.36
2019-02-15T07:16:18.585Z,99.32
2019-02-15T07:18:48.188Z,99.47
2019-02-15T07:21:17.232Z,99.88
2019-02-15T07:23:46.403Z,100.00
2019-02-15T07:26:15.735Z,100.00
2019-02-15T07:28:44.953Z,100.00
2019-02-15T07:31:14.088Z,100.00
2019-02-15T07:33:43.617Z,100.00
2019-02-15T07:36:12.686Z,100.00
2019-02-15T07:38:41.788Z,100.00
2019-02-15T07:41:10.959Z,100.00
2019-02-15T07:43:40.134Z,100.00
2019-02-15T07:46:09.359Z,100.00
2019-02-15T07:48:38.520Z,100.00
2019-02-15T07:51:09.930Z,100.00
2019-02-15T07:53:38.551Z,100.00
2019-02-15T07:56:07.933Z,100.00
2019-02-15T07:58:36.967Z,98.55
2019-02-15T08:01:06.116Z,98.25
2019-02-15T08:03:35.228Z,98.20
2019-02-15T08:06:04.446Z,97.99
2019-02-15T08:08:33.516Z,98.36
2019-02-15T08:11:02.654Z,98.36
2019-02-15T08:13:31.800Z,98.38
2019-02-15T08:16:02.767Z,98.32
2019-02-15T08:18:33.571Z,98.01
2019-02-15T08:21:02.929Z,97.83
2019-02-15T08:23:32.114Z,97.51
2019-02-15T08:26:01.253Z,97.04
2019-02-15T08:28:30.474Z,97.16
2019-02-15T08:30:59.601Z,97.21
2019-02-15T08:33:29.316Z,97.89
2019-02-15T08:35:58.650Z,98.47
2019-02-15T08:38:27.929Z,98.16
2019-02-15T08:40:56.994Z,97.63
2019-02-15T08:43:26.056Z,96.44
2019-02-15T08:46:01.528Z,95.11
2019-02-15T08:48:25.928Z,93.39
2019-02-15T08:50:55.030Z,91.48
2019-02-15T08:53:24.109Z,90.44
2019-02-15T08:55:53.285Z,89.51
2019-02-15T08:58:22.400Z,89.03
2019-02-15T09:00:51.611Z,87.89
2019-02-15T09:03:22.110Z,87.53
2019-02-15T09:05:51.295Z,86.94
2019-02-15T09:08:20.692Z,86.35
2019-02-15T09:10:49.936Z,85.85
2019-02-15T09:13:18.991Z,85.79
2019-02-15T09:15:48.079Z,84.45
2019-02-15T09:18:17.348Z,84.83
2019-02-15T09:20:46.448Z,86.22
2019-02-15T09:23:15.570Z,85.80
2019-02-15T09:25:44.672Z,83.70
2019-02-15T09:28:39.686Z,82.85
2019-02-15T09:31:08.785Z,82.34
2019-02-15T09:33:37.936Z,82.99
2019-02-15T09:36:07.058Z,82.43
2019-02-15T09:38:36.173Z,82.58
2019-02-15T09:41:05.285Z,82.10
2019-02-15T09:43:34.504Z,81.40
2019-02-15T09:46:03.603Z,82.20
2019-02-15T09:48:32.814Z,82.55
2019-02-15T09:51:02.273Z,82.39
2019-02-15T09:53:31.245Z,81.94
2019-02-15T09:56:00.270Z,81.25
2019-02-15T09:58:29.330Z,81.74
2019-02-15T10:00:58.502Z,81.13
2019-02-15T10:10:55.671Z,84.02
2019-02-15T10:13:24.755Z,84.70
2019-02-15T10:15:53.781Z,84.41
2019-02-15T10:18:22.936Z,84.54
2019-02-15T10:20:52.103Z,83.45
2019-02-15T10:23:21.121Z,83.75
2019-02-15T10:25:50.297Z,84.75
2019-02-15T10:28:19.344Z,83.28
2019-02-15T10:30:48.457Z,83.77
2019-02-15T10:33:17.461Z,82.23
2019-02-15T10:35:46.573Z,82.60
2019-02-15T10:38:15.681Z,82.17
2019-02-15T10:40:44.811Z,82.19
2019-02-15T10:43:13.912Z,80.97
2019-02-15T10:45:43.042Z,81.81
2019-02-15T10:48:12.147Z,80.57
2019-02-15T10:50:41.272Z,80.02
2019-02-15T10:53:11.089Z,79.91
2019-02-15T10:55:40.305Z,79.62
2019-02-15T10:58:09.393Z,79.75
2019-02-15T11:00:38.746Z,79.79
2019-02-15T11:03:07.877Z,77.90
2019-02-15T11:05:37.055Z,78.00
2019-02-15T11:08:06.487Z,78.98
2019-02-15T11:10:35.708Z,78.34
2019-02-15T11:13:04.785Z,77.03
2019-02-15T11:15:33.841Z,77.85
2019-02-15T11:18:02.918Z,77.95
2019-02-15T11:20:31.975Z,77.67
2019-02-15T11:23:01.115Z,78.39
2019-02-15T11:25:30.233Z,76.57
2019-02-15T11:27:59.332Z,77.51
2019-02-15T11:30:28.473Z,76.74
2019-02-15T11:32:57.722Z,76.44
2019-02-15T11:35:26.808Z,76.65
2019-02-15T11:37:56.358Z,76.73
2019-02-15T11:40:25.441Z,75.39
2019-02-15T11:42:55.101Z,75.06
2019-02-15T11:45:24.292Z,75.03
2019-02-15T11:47:53.321Z,74.34
2019-02-15T11:50:22.442Z,73.92
2019-02-15T11:52:51.689Z,73.39
2019-02-15T11:55:20.851Z,72.64
2019-02-15T11:57:49.990Z,72.64
2019-02-15T12:00:23.594Z,72.74
2019-02-15T12:02:52.907Z,73.47
2019-02-15T12:05:22.020Z,70.89
2019-02-15T12:07:51.601Z,72.01
2019-02-15T12:10:20.797Z,72.01
2019-02-15T12:12:50.594Z,72.29
2019-02-15T12:15:19.750Z,71.30
2019-02-15T12:17:48.923Z,69.93
2019-02-15T12:20:18.382Z,70.40
2019-02-15T12:22:47.494Z,70.40
2019-02-15T12:25:16.642Z,71.01
2019-02-15T12:27:45.864Z,69.01
2019-02-15T12:30:14.945Z,68.91
2019-02-15T12:32:44.096Z,68.18
2019-02-15T12:35:13.103Z,66.67
2019-02-15T12:37:42.277Z,67.18
2019-02-15T12:40:11.611Z,67.79
2019-02-15T12:42:40.836Z,65.14
2019-02-15T12:45:10.487Z,66.48
2019-02-15T12:47:39.545Z,67.65
2019-02-15T12:50:11.059Z,67.25
2019-02-15T12:52:40.278Z,67.81
2019-02-15T12:55:09.374Z,67.65
2019-02-15T12:57:38.428Z,69.27
2019-02-15T13:00:10.097Z,69.80
2019-02-15T13:02:39.222Z,71.46
2019-02-15T13:05:09.343Z,70.46
2019-02-15T13:07:38.411Z,68.79
2019-02-15T13:10:09.006Z,67.33
2019-02-15T13:12:38.064Z,68.35
2019-02-15T13:15:07.330Z,69.51
2019-02-15T13:17:36.458Z,65.60
2019-02-15T13:20:05.627Z,63.66
2019-02-15T13:22:34.742Z,64.51
2019-02-15T13:25:04.355Z,65.28
2019-02-15T13:27:33.479Z,62.07
2019-02-15T13:30:02.500Z,62.82
2019-02-15T13:32:32.758Z,62.17
2019-02-15T13:35:01.919Z,60.11
2019-02-15T13:37:31.067Z,62.68
2019-02-15T13:40:00.149Z,64.14
2019-02-15T13:42:29.621Z,61.94
2019-02-15T13:44:58.613Z,62.30
2019-02-15T13:47:34.251Z,61.41
2019-02-15T13:49:58.813Z,62.33
2019-02-15T13:52:27.904Z,63.21
2019-02-15T13:54:57.307Z,62.70
2019-02-15T13:57:26.539Z,62.82
2019-02-15T13:59:55.814Z,61.84
2019-02-15T14:02:24.897Z,60.54
2019-02-15T14:04:53.937Z,61.72
2019-02-15T14:07:23.139Z,61.27
2019-02-15T14:09:52.529Z,60.60
2019-02-15T14:12:21.627Z,59.48
2019-02-15T14:14:50.811Z,58.53
2019-02-15T14:17:19.847Z,59.33
2019-02-15T14:19:49.006Z,59.23
2019-02-15T14:22:18.092Z,59.18
2019-02-15T14:24:47.191Z,60.74
2019-02-15T14:27:16.282Z,59.76
2019-02-15T14:29:45.455Z,59.47
2019-02-15T14:32:14.553Z,59.04
2019-02-15T14:34:43.695Z,58.34
2019-02-15T14:37:12.771Z,60.39
2019-02-15T14:39:42.346Z,58.39
2019-02-15T14:42:11.400Z,59.52
2019-02-15T14:44:40.547Z,59.02
2019-02-15T14:47:09.631Z,58.83
2019-02-15T14:49:38.862Z,55.95
2019-02-15T14:52:07.968Z,56.80
2019-02-15T14:54:37.123Z,55.44
2019-02-15T14:57:06.857Z,56.49
2019-02-15T14:59:36.020Z,59.58
2019-02-15T15:02:05.183Z,61.76
2019-02-15T15:04:34.433Z,63.37
2019-02-15T15:07:03.497Z,63.16
2019-02-15T15:09:32.592Z,63.66
2019-02-15T15:12:01.732Z,63.62
2019-02-15T15:14:30.823Z,63.24
2019-02-15T15:16:59.975Z,63.28
2019-02-15T15:19:29.168Z,63.57
2019-02-15T15:21:58.187Z,65.28
2019-02-15T15:24:28.515Z,68.08
2019-02-15T15:26:58.116Z,68.30
2019-02-15T15:29:27.262Z,68.88
2019-02-15T15:31:56.274Z,68.88
2019-02-15T15:34:25.340Z,69.65
2019-02-15T15:36:54.463Z,70.24
2019-02-15T15:39:23.610Z,71.06
2019-02-15T15:41:52.842Z,71.29
2019-02-15T15:44:21.992Z,72.12
2019-02-15T15:46:51.075Z,71.86
2019-02-15T15:49:20.076Z,72.41
2019-02-15T15:51:49.364Z,72.97
2019-02-15T15:54:18.639Z,73.40
2019-02-15T15:56:47.734Z,74.48
2019-02-15T15:59:16.783Z,75.39
2019-02-15T16:01:45.909Z,75.25
2019-02-15T16:04:15.105Z,75.79
2019-02-15T16:06:44.265Z,76.37
2019-02-15T16:09:13.696Z,76.24
2019-02-15T16:11:42.794Z,76.61
2019-02-15T16:14:11.935Z,76.80
2019-02-15T16:16:41.082Z,76.39
2019-02-15T16:19:10.206Z,77.14
2019-02-15T16:21:39.180Z,77.93
2019-02-15T16:24:12.625Z,77.95
2019-02-15T16:26:39.105Z,78.10
2019-02-15T16:29:08.175Z,78.64
2019-02-15T16:31:37.296Z,78.52
2019-02-15T16:34:06.415Z,79.05
2019-02-15T16:36:35.503Z,79.97
2019-02-15T16:39:05.730Z,80.54
2019-02-15T16:41:34.683Z,80.42
2019-02-15T16:44:03.873Z,81.51
2019-02-15T16:46:32.994Z,82.46
2019-02-15T16:49:02.112Z,82.08
2019-02-15T16:51:31.283Z,81.29
2019-02-15T16:54:00.389Z,81.70
2019-02-15T16:56:29.870Z,81.57
2019-02-15T16:58:58.960Z,81.43
2019-02-15T17:01:28.051Z,82.34
2019-02-15T17:03:57.109Z,82.81
2019-02-15T17:06:26.248Z,82.31
2019-02-15T17:08:55.306Z,82.77
2019-02-15T17:11:24.514Z,83.40
2019-02-15T17:13:53.988Z,84.47
2019-02-15T17:16:23.220Z,84.20
2019-02-15T17:18:52.451Z,83.60
2019-02-15T17:21:21.530Z,84.46
2019-02-15T17:23:50.678Z,84.48
2019-02-15T17:26:19.865Z,85.10
2019-02-15T17:28:49.071Z,85.25
2019-02-15T17:43:26.482Z,86.47
2019-02-15T17:45:55.620Z,86.93
2019-02-15T17:48:25.224Z,87.41
2019-02-15T17:50:54.578Z,86.56
2019-02-15T17:53:24.601Z,86.91
2019-02-15T17:55:54.098Z,87.17
2019-02-15T17:58:23.391Z,87.75
2019-02-15T18:00:52.558Z,87.65
2019-02-15T18:03:21.785Z,88.33
2019-02-15T18:05:51.049Z,88.82
2019-02-15T18:08:20.469Z,89.25
2019-02-15T18:10:49.736Z,89.35
2019-02-15T18:13:19.132Z,89.32
2019-02-15T18:15:48.440Z,89.84
2019-02-15T18:18:17.882Z,89.65
2019-02-15T18:20:47.370Z,89.12
2019-02-15T18:23:16.496Z,89.62
2019-02-15T18:25:45.753Z,89.79
2019-02-15T18:28:15.089Z,90.13
2019-02-15T18:30:44.236Z,90.16
2019-02-15T18:33:13.404Z,90.21
2019-02-15T18:35:42.592Z,90.63
2019-02-15T18:38:11.785Z,90.77
2019-02-15T18:40:40.955Z,91.07
2019-02-15T18:43:10.285Z,90.98
2019-02-15T18:45:39.503Z,91.09
2019-02-15T18:48:08.699Z,91.05
2019-02-15T18:50:37.850Z,91.24
2019-02-15T18:53:07.021Z,91.17
2019-02-15T18:55:36.376Z,91.07
2019-02-15T18:58:05.560Z,91.08
2019-02-15T19:00:34.779Z,91.41
2019-02-15T19:03:04.722Z,91.39
2019-02-15T19:05:34.030Z,91.68
2019-02-15T19:08:03.294Z,92.09
2019-02-15T19:10:32.638Z,91.24
2019-02-15T19:13:01.950Z,91.96
2019-02-15T19:15:31.144Z,92.26
2019-02-15T19:18:00.494Z,92.75
2019-02-15T19:20:29.694Z,92.07
2019-02-15T19:22:58.869Z,91.97
2019-02-15T19:25:28.054Z,92.06
2019-02-15T19:27:57.648Z,92.33
2019-02-15T19:30:27.771Z,92.67
2019-02-15T19:32:57.006Z,93.20
2019-02-15T19:35:26.174Z,93.40
2019-02-15T19:37:55.485Z,93.21
2019-02-15T19:40:24.784Z,93.05
2019-02-15T19:42:54.564Z,93.10
2019-02-15T19:45:23.787Z,93.16
2019-02-15T19:47:53.015Z,93.40
2019-02-15T19:50:22.192Z,93.64
2019-02-15T19:52:51.483Z,93.76
2019-02-15T19:55:20.906Z,93.60
2019-02-15T19:57:50.216Z,93.33
2019-02-15T20:00:19.579Z,93.62
2019-02-15T20:02:48.823Z,93.56
2019-02-15T20:05:17.973Z,93.41
2019-02-15T20:07:47.227Z,93.54
2019-02-15T20:10:18.654Z,93.68
2019-02-15T20:12:48.087Z,93.79
2019-02-15T20:15:17.275Z,93.97
2019-02-15T20:17:46.516Z,94.30
2019-02-15T20:20:15.764Z,94.43
2019-02-15T20:22:45.011Z,94.56
2019-02-15T20:25:14.161Z,94.75
2019-02-15T20:27:43.415Z,94.97
2019-02-15T20:30:14.718Z,94.88
2019-02-15T20:32:44.194Z,94.99
2019-02-15T20:35:13.811Z,94.74
2019-02-15T20:37:43.118Z,94.77
2019-02-15T20:40:12.277Z,94.71
2019-02-15T20:42:41.468Z,95.02
2019-02-15T20:45:13.621Z,95.03
2019-02-15T20:47:42.815Z,94.82
2019-02-15T20:50:12.095Z,94.68
2019-02-15T20:52:41.456Z,94.64
2019-02-15T20:55:11.951Z,94.61
2019-02-15T20:57:41.268Z,94.83
2019-02-15T21:00:13.196Z,95.07
2019-02-15T21:02:42.429Z,95.14
2019-02-15T21:05:11.690Z,95.27
2019-02-15T21:07:40.879Z,95.06
2019-02-15T21:10:11.348Z,95.18
2019-02-15T21:12:41.331Z,95.21
2019-02-15T21:15:10.923Z,94.99
2019-02-15T21:17:40.074Z,95.18
2019-02-15T21:20:10.589Z,95.17
2019-02-15T21:22:40.713Z,95.13
2019-02-15T21:25:14.626Z,95.13
2019-02-15T21:27:45.343Z,95.12
2019-02-15T21:30:14.821Z,95.27
2019-02-15T21:32:44.149Z,95.22
2019-02-15T21:35:13.219Z,95.21
2019-02-15T21:37:42.439Z,95.01
2019-02-15T21:40:15.019Z,94.91
2019-02-15T21:42:44.438Z,94.89
2019-02-15T21:45:14.000Z,95.11
2019-02-15T21:47:43.097Z,95.16
2019-02-15T21:50:17.317Z,95.02
2019-02-15T21:52:44.466Z,95.05
2019-02-15T21:55:13.906Z,95.46
2019-02-15T21:57:43.144Z,95.45
2019-02-15T22:00:15.783Z,95.27
2019-02-15T22:02:44.950Z,95.21
2019-02-15T22:05:14.049Z,95.04
2019-02-15T22:07:43.191Z,95.15
2019-02-15T22:10:12.318Z,94.88
2019-02-15T22:12:41.565Z,95.03
2019-02-15T22:15:11.394Z,95.25
2019-02-15T22:17:40.562Z,95.36
2019-02-15T22:20:11.164Z,95.21
2019-02-15T22:22:40.412Z,95.37
2019-02-15T22:25:09.550Z,95.23
2019-02-15T22:27:38.685Z,95.06
2019-02-15T22:30:09.802Z,94.95
2019-02-15T22:32:38.965Z,95.09
2019-02-15T22:35:08.351Z,95.40
2019-02-15T22:37:37.518Z,95.33
2019-02-15T22:40:44.789Z,95.47
2019-02-15T22:43:19.852Z,95.69
2019-02-15T22:45:48.980Z,95.76
2019-02-15T22:48:18.406Z,95.87
2019-02-15T22:50:47.554Z,95.92
2019-02-15T22:53:16.726Z,95.94
2019-02-15T22:55:45.849Z,95.59
2019-02-15T22:58:14.978Z,95.36
2019-02-15T23:01:17.488Z,95.42
2019-02-15T23:03:46.627Z,95.59
2019-02-15T23:06:15.738Z,95.84
2019-02-15T23:08:44.878Z,95.65
2019-02-15T23:11:14.016Z,95.64
2019-02-15T23:13:43.177Z,95.72
2019-02-15T23:16:12.307Z,95.61
2019-02-15T23:18:41.501Z,95.85
2019-02-15T23:21:10.619Z,95.84
2019-02-15T23:23:39.770Z,95.80
2019-02-15T23:26:08.873Z,95.68
2019-02-15T23:28:38.072Z,95.82
2019-02-15T23:31:07.127Z,95.68
2019-02-15T23:33:36.269Z,95.83
2019-02-15T23:36:05.651Z,95.87
2019-02-15T23:38:34.832Z,95.71
2019-02-15T23:41:03.965Z,95.59
2019-02-15T23:43:33.160Z,95.85
2019-02-15T23:46:02.326Z,95.38
2019-02-15T23:48:31.508Z,96.05
2019-02-15T23:51:00.611Z,96.56
2019-02-15T23:53:29.747Z,96.18
2019-02-15T23:55:58.860Z,96.34
2019-02-15T23:58:28.015Z,96.58
